Sacramento Mather Airport Sacramento US
ICAO: KMHR
IATA: MHR
Category: Medium
Scheduled Services: No

Elevation: 99 ft
TransAlt. 18000 ft.

Airport Communications:
NORCAL APP/DEP:127.4
ATIS:118.325
CLNC DEL:121.85
GND:121.85
SPARTAN OPS:34.1
TWR:120.65
UNICOM:123.075

KMHR Zoom In..

If you have problems with the map follow the link
https://www.worldairports.se/pages/airport.php?
ICAO=KMHR

Runways:

(A) RW 04L length 6038 ft width 150 ft
---- / hdg 37

(B) RW 04R length 11301 ft width 150 ft
---- / hdg 37

(C) RW 22L length 11301 ft width 150 ft
ILS 111.35 / hdg 217

(D) RW 22R length 6038 ft width 150 ft
---- / hdg 217

Location; KMHR
Day. 22 / Time. 12.45 Zulu
* Altimeter: 30.22
* Temperature: 11° c. 51.8°f.
* Wind from: 150° Speed 05 kn.
Dewpoint: 11° c.
Visibility: 4 Statute Miles.
Clouds: Overcast 500 ft.
Conditions: Mist.

KMHR 221245Z 15005KT 4SM BR OVC005 11/11 A3022


Wind From 150°
Speed 05 kn.

 
 
jpsmedia worldairports.se 2020   terms of use